Time;durP1;ratioP1;P1;durP2;ratioP2;P2;SDS_P1;SDS_P2;PMS_P1;PMS_P2;Temp;Humidity;BMP_temperature;BMP_pressure;BME280_temperature;BME280_humidity;BME280_pressure;Samples;Min_cycle;Max_cycle;Signal;HPM_P1;HPM_P2
2023/08/04 00:00:52;;;;;;;;;2.75;2.75;;;;;;;;5095396;27;45369;-68
2023/08/04 00:03:17;;;;;;;;;8.00;3.00;;;;;;;;5096282;27;47422;-68
2023/08/04 00:05:42;;;;;;;;;2.75;2.75;;;;;;;;5098792;27;45548;-68
2023/08/04 00:08:08;;;;;;;;;3.00;3.00;;;;;;;;5099266;27;45391;-68
2023/08/04 00:10:33;;;;;;;;;5.00;3.75;;;;;;;;5098970;27;45401;-68
2023/08/04 00:12:58;;;;;;;;;4.25;3.00;;;;;;;;5098784;27;47383;-68
2023/08/04 00:15:23;;;;;;;;;4.25;2.75;;;;;;;;5098933;27;45507;-67
2023/08/04 00:17:48;;;;;;;;;2.00;2.00;;;;;;;;5098856;27;45374;-68
2023/08/04 00:20:14;;;;;;;;;3.75;3.50;;;;;;;;5098523;27;45385;-68
2023/08/04 00:22:39;;;;;;;;;2.75;2.25;;;;;;;;5097426;27;47304;-68
2023/08/04 00:25:05;;;;;;;;;3.00;3.00;;;;;;;;5098554;27;45737;-68
2023/08/04 00:27:30;;;;;;;;;3.50;3.50;;;;;;;;5097433;27;45480;-68
2023/08/04 00:29:56;;;;;;;;;4.50;3.00;;;;;;;;5098447;27;45367;-68
2023/08/04 00:32:21;;;;;;;;;4.25;3.75;;;;;;;;5080211;27;45964;-68
2023/08/04 00:34:46;;;;;;;;;3.00;3.00;;;;;;;;5098635;27;45421;-68
2023/08/04 00:37:12;;;;;;;;;4.00;4.00;;;;;;;;5098540;27;45374;-68
2023/08/04 00:39:37;;;;;;;;;4.00;2.75;;;;;;;;5098259;27;45274;-68
2023/08/04 00:42:02;;;;;;;;;4.00;3.00;;;;;;;;5098060;27;47306;-68
2023/08/04 00:44:27;;;;;;;;;3.25;3.25;;;;;;;;5096367;27;45442;-68
2023/08/04 00:46:53;;;;;;;;;2.75;2.75;;;;;;;;5078059;27;45308;-68
2023/08/04 00:49:18;;;;;;;;;5.00;4.25;;;;;;;;5077599;27;45465;-68
2023/08/04 00:51:45;;;;;;;;;3.00;3.00;;;;;;;;5076321;27;46275;-68
2023/08/04 00:54:10;;;;;;;;;2.25;2.00;;;;;;;;5077577;27;45489;-68
2023/08/04 00:56:36;;;;;;;;;3.00;3.00;;;;;;;;5077533;27;45362;-68
2023/08/04 00:59:02;;;;;;;;;2.00;2.00;;;;;;;;5077913;27;45327;-68
2023/08/04 01:01:27;;;;;;;;;4.25;4.25;;;;;;;;5077338;28;46342;-68
2023/08/04 01:03:55;;;;;;;;;2.00;2.00;;;;;;;;5077493;28;45438;-68
2023/08/04 01:06:26;;;;;;;;;3.25;3.25;;;;;;;;5077736;27;45437;-68
2023/08/04 01:08:53;;;;;;;;;3.25;3.25;;;;;;;;5077240;27;45331;-68
2023/08/04 01:11:19;;;;;;;;;5.00;5.00;;;;;;;;5077198;27;45492;-68
2023/08/04 01:13:45;;;;;;;;;4.50;4.50;;;;;;;;5075897;28;45360;-68
2023/08/04 01:16:10;;;;;;;;;3.00;3.00;;;;;;;;5076525;27;45300;-68
2023/08/04 01:18:35;;;;;;;;;3.25;3.25;;;;;;;;5076189;28;45395;-68
2023/08/04 01:21:02;;;;;;;;;4.25;3.75;;;;;;;;5077257;28;45439;-68
2023/08/04 01:23:27;;;;;;;;;4.00;3.00;;;;;;;;5076861;27;45576;-68
2023/08/04 01:25:52;;;;;;;;;3.00;3.00;;;;;;;;5077233;28;45262;-68
2023/08/04 01:28:19;;;;;;;;;4.00;3.00;;;;;;;;5077331;28;45277;-68
2023/08/04 01:30:50;;;;;;;;;2.00;2.00;;;;;;;;5077076;27;46934;-68
2023/08/04 01:33:15;;;;;;;;;3.00;3.00;;;;;;;;5077200;27;45309;-68
2023/08/04 01:35:42;;;;;;;;;4.25;4.25;;;;;;;;5075874;28;45291;-68
2023/08/04 01:38:07;;;;;;;;;5.00;3.00;;;;;;;;5076962;28;45192;-69
2023/08/04 01:40:32;;;;;;;;;3.50;3.25;;;;;;;;5082129;27;46027;-68
2023/08/04 01:42:58;;;;;;;;;5.50;4.00;;;;;;;;5097427;27;45296;-68
2023/08/04 01:45:23;;;;;;;;;3.00;3.00;;;;;;;;5097500;27;45285;-68
2023/08/04 01:47:48;;;;;;;;;5.25;3.25;;;;;;;;5096348;27;45343;-68
2023/08/04 01:50:13;;;;;;;;;4.00;4.00;;;;;;;;5097166;27;46970;-68
2023/08/04 01:52:39;;;;;;;;;5.50;4.50;;;;;;;;5097051;27;45217;-68
2023/08/04 01:55:04;;;;;;;;;3.00;3.00;;;;;;;;5097231;27;45312;-67
2023/08/04 01:57:29;;;;;;;;;3.25;2.50;;;;;;;;5096799;27;45477;-67
2023/08/04 01:59:54;;;;;;;;;4.50;4.00;;;;;;;;5097109;27;46240;-67
2023/08/04 02:02:20;;;;;;;;;4.00;4.00;;;;;;;;5095694;27;45394;-67
2023/08/04 02:04:45;;;;;;;;;4.00;4.00;;;;;;;;5097057;27;45321;-67
2023/08/04 02:07:10;;;;;;;;;3.00;3.00;;;;;;;;5096748;27;45533;-67
2023/08/04 02:09:35;;;;;;;;;1.00;1.00;;;;;;;;5096901;27;46107;-67
2023/08/04 02:12:01;;;;;;;;;5.25;5.00;;;;;;;;5096998;27;45361;-67
2023/08/04 02:14:28;;;;;;;;;3.25;3.25;;;;;;;;5095699;27;45380;-67
2023/08/04 02:16:53;;;;;;;;;4.75;3.75;;;;;;;;5095541;27;45426;-67
2023/08/04 02:19:20;;;;;;;;;5.00;4.75;;;;;;;;5096504;27;46436;-67
2023/08/04 02:21:46;;;;;;;;;5.00;4.00;;;;;;;;5096650;27;45325;-67
2023/08/04 02:24:11;;;;;;;;;5.50;4.25;;;;;;;;5096629;27;45405;-67
2023/08/04 02:26:36;;;;;;;;;5.00;4.75;;;;;;;;5096876;27;45402;-67
2023/08/04 02:29:01;;;;;;;;;4.00;4.00;;;;;;;;5096547;27;46436;-68
2023/08/04 02:31:28;;;;;;;;;5.25;5.25;;;;;;;;5096858;27;45393;-68
2023/08/04 02:33:54;;;;;;;;;5.00;5.00;;;;;;;;5096515;27;45402;-67
2023/08/04 02:36:19;;;;;;;;;7.50;4.00;;;;;;;;5096381;27;45330;-67
2023/08/04 02:38:45;;;;;;;;;6.00;4.00;;;;;;;;5096567;27;46310;-67
2023/08/04 02:41:10;;;;;;;;;7.00;6.75;;;;;;;;5096346;27;45443;-67
2023/08/04 02:43:35;;;;;;;;;5.50;5.50;;;;;;;;5096377;27;45301;-67
2023/08/04 02:46:01;;;;;;;;;4.75;4.75;;;;;;;;5096362;27;45438;-67
2023/08/04 02:48:26;;;;;;;;;9.50;8.50;;;;;;;;5096398;27;47303;-67
2023/08/04 02:51:00;;;;;;;;;6.50;6.50;;;;;;;;5077710;27;45390;-67
2023/08/04 02:53:25;;;;;;;;;4.00;4.00;;;;;;;;5096071;27;45418;-67
2023/08/04 02:55:50;;;;;;;;;4.25;4.25;;;;;;;;5095887;27;45506;-67
2023/08/04 02:58:15;;;;;;;;;5.00;4.00;;;;;;;;5095926;27;45969;-67
2023/08/04 03:00:41;;;;;;;;;4.50;4.50;;;;;;;;5096144;27;45282;-68
2023/08/04 03:03:06;;;;;;;;;8.00;6.00;;;;;;;;5096454;27;45320;-67
2023/08/04 03:05:34;;;;;;;;;7.50;5.00;;;;;;;;5094715;27;45375;-66
2023/08/04 03:07:59;;;;;;;;;2.50;2.00;;;;;;;;5094606;27;48342;-67
2023/08/04 03:10:24;;;;;;;;;4.50;4.50;;;;;;;;5095988;27;45522;-67
2023/08/04 03:12:49;;;;;;;;;7.75;6.00;;;;;;;;5096202;27;45414;-67
2023/08/04 03:15:15;;;;;;;;;7.75;7.75;;;;;;;;5096276;27;45444;-67
2023/08/04 03:17:40;;;;;;;;;4.75;4.75;;;;;;;;5095732;27;46120;-67
2023/08/04 03:20:08;;;;;;;;;7.50;7.50;;;;;;;;5095605;27;45409;-67
2023/08/04 03:22:33;;;;;;;;;6.50;6.50;;;;;;;;5094699;27;45358;-67
2023/08/04 03:24:58;;;;;;;;;5.00;5.00;;;;;;;;5095721;27;45381;-67
2023/08/04 03:27:23;;;;;;;;;6.00;5.75;;;;;;;;5096172;27;47012;-67
2023/08/04 03:29:48;;;;;;;;;8.25;8.25;;;;;;;;5095823;27;45347;-68
2023/08/04 03:32:14;;;;;;;;;4.50;4.00;;;;;;;;5096077;27;45341;-68
2023/08/04 03:34:39;;;;;;;;;5.75;5.75;;;;;;;;5095481;27;45346;-67
2023/08/04 03:37:04;;;;;;;;;8.00;6.00;;;;;;;;5095456;27;47211;-67
2023/08/04 03:39:29;;;;;;;;;6.00;6.00;;;;;;;;5098443;27;45420;-66
2023/08/04 03:41:55;;;;;;;;;7.00;5.00;;;;;;;;5099375;27;45356;-67
2023/08/04 03:44:20;;;;;;;;;4.25;4.25;;;;;;;;5099301;27;45551;-67
2023/08/04 03:46:45;;;;;;;;;10.00;8.50;;;;;;;;5099073;27;47118;-67
2023/08/04 03:49:10;;;;;;;;;6.25;4.00;;;;;;;;5099077;27;45441;-68
2023/08/04 03:51:36;;;;;;;;;8.50;4.75;;;;;;;;5099269;27;45320;-68
2023/08/04 03:54:01;;;;;;;;;7.50;5.00;;;;;;;;5099361;27;45351;-68
2023/08/04 03:56:26;;;;;;;;;4.75;4.25;;;;;;;;5098706;27;46380;-68
2023/08/04 03:58:51;;;;;;;;;9.00;8.25;;;;;;;;5098696;27;45507;-68
2023/08/04 04:01:16;;;;;;;;;9.00;7.75;;;;;;;;5099243;27;45391;-68
2023/08/04 04:03:42;;;;;;;;;5.50;5.50;;;;;;;;5098986;27;45360;-68
2023/08/04 04:06:07;;;;;;;;;4.00;4.00;;;;;;;;5098617;27;46397;-68
2023/08/04 04:08:32;;;;;;;;;7.75;7.50;;;;;;;;5098611;27;45631;-67
2023/08/04 04:10:57;;;;;;;;;10.25;4.25;;;;;;;;5098719;27;45357;-67
2023/08/04 04:13:23;;;;;;;;;5.25;5.25;;;;;;;;5098722;27;45473;-67
2023/08/04 04:15:48;;;;;;;;;9.00;6.00;;;;;;;;5097377;27;46263;-67
2023/08/04 04:18:13;;;;;;;;;7.50;6.50;;;;;;;;5097429;27;45494;-67
2023/08/04 04:20:38;;;;;;;;;7.75;5.00;;;;;;;;5097312;27;45342;-66
2023/08/04 04:23:04;;;;;;;;;6.25;6.25;;;;;;;;5098700;27;45446;-67
2023/08/04 04:25:29;;;;;;;;;8.00;5.50;;;;;;;;5098308;27;45363;-67
2023/08/04 04:27:54;;;;;;;;;8.00;7.00;;;;;;;;5098499;27;45335;-67
2023/08/04 04:30:19;;;;;;;;;3.00;2.00;;;;;;;;5097373;27;45476;-68
2023/08/04 04:32:44;;;;;;;;;8.75;8.25;;;;;;;;5098152;27;45394;-68
2023/08/04 04:35:10;;;;;;;;;10.75;7.75;;;;;;;;5098332;27;46313;-68
2023/08/04 04:37:35;;;;;;;;;4.75;4.75;;;;;;;;5098354;27;45433;-68
2023/08/04 04:40:00;;;;;;;;;6.75;5.00;;;;;;;;5098306;27;45389;-68
2023/08/04 04:42:25;;;;;;;;;5.00;5.00;;;;;;;;5098230;27;45433;-68
2023/08/04 04:44:50;;;;;;;;;7.50;7.50;;;;;;;;5098192;27;47036;-68
2023/08/04 04:47:16;;;;;;;;;5.50;5.50;;;;;;;;5098439;27;45255;-68
2023/08/04 04:49:41;;;;;;;;;8.50;8.50;;;;;;;;5097140;27;45406;-68
2023/08/04 04:52:06;;;;;;;;;4.75;4.25;;;;;;;;5097729;27;45370;-68
2023/08/04 04:54:31;;;;;;;;;7.00;7.00;;;;;;;;5097967;27;46161;-68
2023/08/04 04:56:57;;;;;;;;;7.00;6.50;;;;;;;;5096345;27;45323;-68
2023/08/04 04:59:22;;;;;;;;;10.75;6.00;;;;;;;;5097990;27;45324;-68
2023/08/04 05:01:47;;;;;;;;;9.75;6.50;;;;;;;;5097850;27;45327;-68
2023/08/04 05:04:13;;;;;;;;;10.50;9.00;;;;;;;;5096171;27;47561;-67
2023/08/04 05:06:38;;;;;;;;;10.50;9.75;;;;;;;;5097650;27;45292;-69
2023/08/04 05:09:03;;;;;;;;;8.75;8.75;;;;;;;;5096436;27;45345;-68
2023/08/04 05:11:28;;;;;;;;;10.00;6.00;;;;;;;;5097867;27;45419;-68
2023/08/04 05:13:53;;;;;;;;;10.75;9.75;;;;;;;;5097465;27;46694;-68
2023/08/04 05:16:19;;;;;;;;;8.75;7.75;;;;;;;;5097489;27;45296;-68
2023/08/04 05:18:44;;;;;;;;;12.00;9.75;;;;;;;;5097698;27;45221;-68
2023/08/04 05:21:09;;;;;;;;;10.00;8.25;;;;;;;;5079287;27;45363;-68
2023/08/04 05:23:34;;;;;;;;;11.50;10.75;;;;;;;;5097587;27;45945;-68
2023/08/04 05:26:00;;;;;;;;;10.75;8.25;;;;;;;;5097384;27;45275;-68
2023/08/04 05:28:30;;;;;;;;;11.00;9.75;;;;;;;;5096443;27;45401;-68
2023/08/04 05:30:56;;;;;;;;;6.75;5.50;;;;;;;;5097235;27;45525;-68
2023/08/04 05:33:22;;;;;;;;;9.50;8.75;;;;;;;;5101876;27;47934;-68
2023/08/04 05:35:47;;;;;;;;;9.00;9.00;;;;;;;;5117721;27;45935;-68
2023/08/04 05:38:13;;;;;;;;;14.00;10.00;;;;;;;;5117306;27;45419;-68
2023/08/04 05:40:38;;;;;;;;;12.25;11.00;;;;;;;;5096420;27;45274;-68
2023/08/04 05:43:04;;;;;;;;;13.50;10.50;;;;;;;;5096899;27;45371;-68
2023/08/04 05:45:33;;;;;;;;;11.25;9.25;;;;;;;;5096821;27;45553;-68
2023/08/04 05:47:58;;;;;;;;;12.00;9.75;;;;;;;;5097173;27;45362;-68
2023/08/04 05:50:23;;;;;;;;;9.75;9.75;;;;;;;;5095272;27;45337;-68
2023/08/04 05:52:49;;;;;;;;;8.50;7.50;;;;;;;;5096748;27;46367;-68
2023/08/04 05:55:14;;;;;;;;;7.50;7.25;;;;;;;;5097249;27;45385;-68
2023/08/04 05:57:39;;;;;;;;;8.00;7.00;;;;;;;;5096888;27;45456;-68
2023/08/04 06:00:05;;;;;;;;;11.75;9.50;;;;;;;;5096428;27;45620;-68
2023/08/04 06:02:31;;;;;;;;;9.50;7.25;;;;;;;;5095569;27;47054;-68
2023/08/04 06:04:56;;;;;;;;;10.00;9.00;;;;;;;;5096602;27;45331;-68
2023/08/04 06:07:21;;;;;;;;;9.25;9.25;;;;;;;;5096689;27;45251;-68
2023/08/04 06:09:46;;;;;;;;;5.00;5.00;;;;;;;;5096886;27;45339;-68
2023/08/04 06:12:11;;;;;;;;;15.25;9.50;;;;;;;;5095179;27;47244;-68
2023/08/04 06:14:37;;;;;;;;;8.75;8.75;;;;;;;;5095901;27;45310;-68
2023/08/04 06:17:02;;;;;;;;;9.00;9.00;;;;;;;;5096721;27;45386;-68
2023/08/04 06:19:27;;;;;;;;;8.50;6.50;;;;;;;;5096569;27;45521;-68
2023/08/04 06:21:53;;;;;;;;;6.25;5.00;;;;;;;;5095967;27;46233;-68
2023/08/04 06:24:27;;;;;;;;;9.75;9.75;;;;;;;;5096561;27;45397;-68
2023/08/04 06:26:52;;;;;;;;;7.00;7.00;;;;;;;;5095801;27;45385;-68
2023/08/04 06:29:18;;;;;;;;;7.50;6.50;;;;;;;;5094818;27;45285;-68
2023/08/04 06:31:43;;;;;;;;;11.25;9.50;;;;;;;;5096209;27;46309;-68
2023/08/04 06:34:08;;;;;;;;;14.00;9.25;;;;;;;;5095870;27;45401;-68
2023/08/04 06:36:34;;;;;;;;;10.25;9.00;;;;;;;;5094777;27;45381;-68
2023/08/04 06:38:59;;;;;;;;;10.00;10.00;;;;;;;;5095942;27;45517;-68
2023/08/04 06:41:24;;;;;;;;;15.75;12.00;;;;;;;;5095654;27;46148;-67
2023/08/04 06:43:49;;;;;;;;;12.75;10.50;;;;;;;;5095935;27;45408;-68
2023/08/04 06:46:14;;;;;;;;;9.25;9.25;;;;;;;;5094787;27;45657;-67
2023/08/04 06:48:39;;;;;;;;;10.75;7.50;;;;;;;;5096023;27;45628;-67
2023/08/04 06:51:05;;;;;;;;;12.25;10.25;;;;;;;;5095304;27;45430;-68
2023/08/04 06:53:30;;;;;;;;;13.50;11.00;;;;;;;;5095854;27;45757;-68
2023/08/04 06:55:55;;;;;;;;;13.25;9.25;;;;;;;;5095892;27;45422;-68
2023/08/04 06:58:21;;;;;;;;;8.75;8.75;;;;;;;;5095614;27;45514;-68
2023/08/04 07:00:46;;;;;;;;;8.25;8.25;;;;;;;;5095876;27;46179;-68
2023/08/04 07:03:12;;;;;;;;;9.00;8.00;;;;;;;;5095124;27;45419;-68
2023/08/04 07:05:38;;;;;;;;;9.00;8.00;;;;;;;;5095866;27;45389;-68
2023/08/04 07:08:03;;;;;;;;;8.25;8.25;;;;;;;;5095699;27;45369;-68
2023/08/04 07:10:28;;;;;;;;;9.50;7.25;;;;;;;;5095529;27;45441;-68
2023/08/04 07:12:53;;;;;;;;;9.25;8.25;;;;;;;;5093978;27;45467;-68
2023/08/04 07:15:18;;;;;;;;;7.25;6.50;;;;;;;;5096203;27;45467;-68
2023/08/04 07:17:44;;;;;;;;;9.00;8.75;;;;;;;;5095918;27;45391;-68
2023/08/04 07:20:09;;;;;;;;;10.25;7.25;;;;;;;;5095546;27;46154;-68
2023/08/04 07:22:34;;;;;;;;;8.50;5.50;;;;;;;;5095996;27;45483;-68
2023/08/04 07:24:59;;;;;;;;;9.00;7.75;;;;;;;;5095343;27;45747;-68
2023/08/04 07:27:25;;;;;;;;;9.75;8.25;;;;;;;;5095119;27;45469;-68
2023/08/04 07:29:50;;;;;;;;;5.25;5.25;;;;;;;;5094123;27;45926;-69
2023/08/04 07:32:15;;;;;;;;;8.25;8.25;;;;;;;;5095301;27;45411;-68
2023/08/04 07:34:40;;;;;;;;;9.25;6.00;;;;;;;;5080042;27;46575;-67
2023/08/04 07:37:05;;;;;;;;;8.00;7.50;;;;;;;;5102747;27;45462;-68
2023/08/04 07:39:31;;;;;;;;;7.50;6.25;;;;;;;;5115589;27;45312;-68
2023/08/04 07:41:56;;;;;;;;;7.25;6.25;;;;;;;;5098836;27;45320;-68
2023/08/04 07:44:21;;;;;;;;;8.25;7.50;;;;;;;;5095575;27;45422;-68
2023/08/04 07:46:47;;;;;;;;;8.75;7.50;;;;;;;;5095558;27;45305;-68
2023/08/04 07:49:12;;;;;;;;;6.00;6.00;;;;;;;;5094811;27;45920;-68
2023/08/04 07:51:37;;;;;;;;;5.00;5.00;;;;;;;;5095232;27;45469;-68
2023/08/04 07:54:02;;;;;;;;;6.50;6.50;;;;;;;;5094846;27;45356;-68
2023/08/04 07:56:31;;;;;;;;;6.25;6.25;;;;;;;;5094930;27;45370;-68
2023/08/04 07:58:56;;;;;;;;;8.50;7.25;;;;;;;;5095236;27;46036;-68
2023/08/04 08:01:22;;;;;;;;;7.75;6.75;;;;;;;;5094584;27;45521;-68
2023/08/04 08:03:47;;;;;;;;;5.25;5.25;;;;;;;;5095472;27;45456;-67
2023/08/04 08:06:12;;;;;;;;;7.75;7.75;;;;;;;;5094635;27;45491;-68
2023/08/04 08:08:37;;;;;;;;;9.75;8.00;;;;;;;;5093991;27;46218;-68
2023/08/04 08:11:06;;;;;;;;;6.75;6.75;;;;;;;;5093454;27;45422;-68
2023/08/04 08:13:32;;;;;;;;;6.00;6.00;;;;;;;;5094929;27;45690;-68
2023/08/04 08:15:57;;;;;;;;;7.00;6.50;;;;;;;;5094704;27;45291;-69
2023/08/04 08:18:22;;;;;;;;;6.50;5.75;;;;;;;;5093666;27;48113;-68
2023/08/04 08:20:48;;;;;;;;;8.00;6.50;;;;;;;;5093155;27;45274;-68
2023/08/04 08:23:13;;;;;;;;;4.00;4.00;;;;;;;;5094515;27;45378;-68
2023/08/04 08:25:38;;;;;;;;;5.00;5.00;;;;;;;;5097646;27;45282;-68
2023/08/04 08:28:04;;;;;;;;;9.75;6.00;;;;;;;;5097885;27;45312;-69
2023/08/04 08:30:30;;;;;;;;;7.50;5.25;;;;;;;;5097987;27;45428;-69
2023/08/04 08:32:55;;;;;;;;;5.00;5.00;;;;;;;;5097127;27;45393;-70
2023/08/04 08:35:20;;;;;;;;;8.50;6.75;;;;;;;;5098187;27;45366;-69
2023/08/04 08:37:45;;;;;;;;;5.50;5.50;;;;;;;;5097926;27;45990;-70
2023/08/04 08:40:11;;;;;;;;;5.75;5.00;;;;;;;;5098284;27;45628;-68
2023/08/04 08:42:36;;;;;;;;;5.00;5.00;;;;;;;;5098092;27;45424;-69
2023/08/04 08:45:01;;;;;;;;;7.00;7.00;;;;;;;;5098624;27;45407;-68
2023/08/04 08:47:31;;;;;;;;;5.00;3.33;;;;;;;;5096877;27;46999;-68
2023/08/04 08:49:59;;;;;;;;;8.25;5.25;;;;;;;;5097907;27;45254;-70
2023/08/04 08:52:28;;;;;;;;;6.25;6.25;;;;;;;;5096463;27;45292;-70
2023/08/04 08:54:54;;;;;;;;;4.25;3.50;;;;;;;;5097942;27;45521;-69
2023/08/04 08:57:19;;;;;;;;;3.25;3.25;;;;;;;;5097360;27;46089;-68
2023/08/04 08:59:44;;;;;;;;;3.00;3.00;;;;;;;;5098078;27;45442;-68
2023/08/04 09:02:11;;;;;;;;;4.00;4.00;;;;;;;;5097930;27;45571;-69
2023/08/04 09:04:37;;;;;;;;;5.67;5.67;;;;;;;;5098145;27;45351;-68
2023/08/04 09:07:03;;;;;;;;;8.00;5.50;;;;;;;;5096007;27;48410;-69
2023/08/04 09:09:28;;;;;;;;;3.25;3.25;;;;;;;;5096325;27;45451;-69
2023/08/04 09:11:55;;;;;;;;;1.67;1.67;;;;;;;;5097952;27;45450;-68
2023/08/04 09:14:20;;;;;;;;;4.50;4.00;;;;;;;;5096316;27;45450;-68
2023/08/04 09:16:47;;;;;;;;;4.33;4.33;;;;;;;;5097185;27;46480;-69
2023/08/04 09:19:14;;;;;;;;;6.00;5.00;;;;;;;;5098085;27;45411;-68
2023/08/04 09:21:39;;;;;;;;;5.75;5.25;;;;;;;;5097551;27;45578;-68
2023/08/04 09:24:08;;;;;;;;;5.50;5.50;;;;;;;;5097686;27;45622;-68
2023/08/04 09:26:46;;;;;;;;;5.75;5.50;;;;;;;;5097474;27;45309;-68
2023/08/04 09:29:12;;;;;;;;;5.00;5.00;;;;;;;;5097215;27;45431;-68
2023/08/04 09:31:38;;;;;;;;;4.00;3.00;;;;;;;;5097861;27;45470;-68
2023/08/04 09:34:05;;;;;;;;;4.00;4.00;;;;;;;;5096138;27;45424;-68
2023/08/04 09:36:30;;;;;;;;;2.00;2.00;;;;;;;;5096373;27;45602;-68
2023/08/04 09:39:03;;;;;;;;;4.00;4.00;;;;;;;;5097233;27;45395;-68
2023/08/04 09:41:31;;;;;;;;;1.50;1.50;;;;;;;;5097445;27;45549;-69
2023/08/04 09:43:57;;;;;;;;;4.00;4.00;;;;;;;;5095626;27;45446;-69
2023/08/04 09:46:22;;;;;;;;;3.00;3.00;;;;;;;;5095747;27;47513;-69
2023/08/04 09:48:47;;;;;;;;;2.75;2.75;;;;;;;;5097084;27;45588;-68
2023/08/04 09:51:14;;;;;;;;;2.33;2.33;;;;;;;;5097085;27;45394;-69
2023/08/04 09:53:49;;;;;;;;;3.75;3.75;;;;;;;;5097421;27;45384;-69
2023/08/04 09:56:17;;;;;;;;;2.67;2.33;;;;;;;;5095324;27;46385;-70
2023/08/04 09:58:42;;;;;;;;;4.00;4.00;;;;;;;;5095335;27;45489;-69
2023/08/04 10:01:08;;;;;;;;;4.33;3.00;;;;;;;;5096634;27;45244;-68
2023/08/04 10:03:34;;;;;;;;;7.00;5.25;;;;;;;;5097065;27;45570;-68
2023/08/04 10:06:00;;;;;;;;;3.00;2.25;;;;;;;;5096688;27;47503;-68
2023/08/04 10:08:27;;;;;;;;;4.00;4.00;;;;;;;;5095424;27;45800;-69
2023/08/04 10:10:54;;;;;;;;;3.33;3.00;;;;;;;;5096913;27;45435;-68
2023/08/04 10:13:20;;;;;;;;;4.00;4.00;;;;;;;;5096673;27;45337;-68
2023/08/04 10:15:46;;;;;;;;;2.00;2.00;;;;;;;;5096803;27;46223;-69
2023/08/04 10:18:11;;;;;;;;;4.00;3.33;;;;;;;;5096660;27;45360;-69
2023/08/04 10:20:36;;;;;;;;;4.25;2.75;;;;;;;;5096329;27;45381;-69
2023/08/04 10:23:02;;;;;;;;;3.00;3.00;;;;;;;;5094985;27;45495;-69
2023/08/04 10:25:28;;;;;;;;;3.00;3.00;;;;;;;;5096426;27;46208;-68
2023/08/04 10:27:53;;;;;;;;;3.75;3.75;;;;;;;;5096610;27;45343;-68
2023/08/04 10:30:18;;;;;;;;;5.50;3.25;;;;;;;;5096484;27;45510;-68
2023/08/04 10:32:43;;;;;;;;;3.00;2.50;;;;;;;;5096027;27;45539;-69
2023/08/04 10:35:19;;;;;;;;;3.00;3.00;;;;;;;;5096290;27;46263;-68
2023/08/04 10:37:46;;;;;;;;;2.00;2.00;;;;;;;;5096052;27;45459;-69
2023/08/04 10:40:12;;;;;;;;;4.00;4.00;;;;;;;;5096126;27;45725;-68
2023/08/04 10:42:56;;;;;;;;;3.00;3.00;;;;;;;;5096367;27;45480;-69
2023/08/04 10:45:21;;;;;;;;;3.00;3.00;;;;;;;;5094974;27;47206;-69
2023/08/04 10:47:47;;;;;;;;;3.00;3.00;;;;;;;;5095077;27;45469;-69
2023/08/04 10:50:13;;;;;;;;;3.25;3.25;;;;;;;;5096069;27;45451;-68
2023/08/04 10:52:39;;;;;;;;;3.00;3.00;;;;;;;;5095319;27;45545;-69
2023/08/04 10:55:06;;;;;;;;;3.50;3.50;;;;;;;;5096221;27;45324;-69
2023/08/04 10:57:32;;;;;;;;;2.75;2.75;;;;;;;;5096143;27;45356;-69
2023/08/04 10:59:58;;;;;;;;;4.75;3.00;;;;;;;;5095061;27;45413;-69
2023/08/04 11:02:23;;;;;;;;;3.50;3.50;;;;;;;;5096078;27;45380;-68
2023/08/04 11:04:50;;;;;;;;;3.75;3.75;;;;;;;;5096161;27;47598;-68
2023/08/04 11:07:16;;;;;;;;;3.50;3.50;;;;;;;;5095842;27;45388;-69
2023/08/04 11:09:42;;;;;;;;;3.00;3.00;;;;;;;;5094560;27;45418;-70
2023/08/04 11:12:08;;;;;;;;;3.00;3.00;;;;;;;;5096041;27;45501;-69
2023/08/04 11:14:33;;;;;;;;;2.50;2.50;;;;;;;;5095501;27;47478;-69
2023/08/04 11:17:01;;;;;;;;;1.67;1.67;;;;;;;;5094310;27;45364;-69
2023/08/04 11:19:27;;;;;;;;;1.33;1.33;;;;;;;;5094994;27;45452;-69
2023/08/04 11:29:35;;;;;;;;;1.00;1.00;;;;;;;;4220942;27;207833567;-72
2023/08/04 11:37:50;;;;;;;;;3.50;3.50;;;;;;;;2;261079510;261079510;-72
2023/08/04 11:45:12;;;;;;;;;1.50;1.50;;;;;;;;2;243076892;243076892;-72
2023/08/04 11:54:05;;;;;;;;;1.00;1.00;;;;;;;;265616;27;242947602;-71
2023/08/04 12:02:21;;;;;;;;;4.00;4.00;;;;;;;;2;261079156;261079156;-72
2023/08/04 12:11:03;;;;;;;;;4.00;1.00;;;;;;;;2;243072032;243072032;-70
2023/08/04 12:19:19;;;;;;;;;4.00;4.00;;;;;;;;2;261076366;261076366;-71
2023/08/04 12:28:02;;;;;;;;;0.50;0.50;;;;;;;;2;243073817;243073817;-70
2023/08/04 12:36:17;;;;;;;;;9.50;1.50;;;;;;;;2;261080369;261080369;-69
2023/08/04 12:44:59;;;;;;;;;2.00;2.00;;;;;;;;2;243075653;243075653;-69
2023/08/04 12:53:15;;;;;;;;;0.50;0.50;;;;;;;;2;261078180;261078180;-68
2023/08/04 13:01:57;;;;;;;;;0.50;0.50;;;;;;;;2;243074946;243074946;-68
2023/08/04 13:10:13;;;;;;;;;1.50;1.50;;;;;;;;2;261078187;261078187;-67
2023/08/04 13:18:56;;;;;;;;;5.50;5.50;;;;;;;;2;243074438;243074438;-68
2023/08/04 13:27:11;;;;;;;;;1.00;1.00;;;;;;;;2;261078148;261078148;-68
2023/08/04 13:35:54;;;;;;;;;0.50;0.50;;;;;;;;2;243072826;243072826;-67
2023/08/04 13:44:09;;;;;;;;;6.50;6.50;;;;;;;;2;261079033;261079033;-68
2023/08/04 13:52:51;;;;;;;;;2.00;2.00;;;;;;;;2;243073183;243073183;-68
2023/08/04 14:01:07;;;;;;;;;1.50;1.50;;;;;;;;2;261077045;261077045;-68
2023/08/04 14:09:49;;;;;;;;;2.00;2.00;;;;;;;;2;243074689;243074689;-68
2023/08/04 14:18:05;;;;;;;;;0.00;0.00;;;;;;;;2;261079244;261079244;-67
2023/08/04 14:26:47;;;;;;;;;0.50;0.50;;;;;;;;2;243076434;243076434;-67
2023/08/04 14:35:03;;;;;;;;;2.50;2.50;;;;;;;;2;261077808;261077808;-68
2023/08/04 14:43:46;;;;;;;;;0.50;0.50;;;;;;;;2;243074463;243074463;-67
2023/08/04 14:52:01;;;;;;;;;0.50;0.50;;;;;;;;2;261079621;261079621;-67
2023/08/04 15:00:45;;;;;;;;;0.50;0.50;;;;;;;;2;243071151;243071151;-68
2023/08/04 15:09:01;;;;;;;;;0.50;0.50;;;;;;;;2;261079452;261079452;-66
2023/08/04 15:17:43;;;;;;;;;0.00;0.00;;;;;;;;2;243073172;243073172;-68
2023/08/04 15:25:59;;;;;;;;;1.50;1.50;;;;;;;;2;261075320;261075320;-68
2023/08/04 15:34:42;;;;;;;;;1.00;1.00;;;;;;;;2;243073828;243073828;-67
2023/08/04 15:42:58;;;;;;;;;1.50;1.50;;;;;;;;2;261078811;261078811;-67
2023/08/04 15:51:40;;;;;;;;;0.50;0.50;;;;;;;;2;243073198;243073198;-67
2023/08/04 15:59:55;;;;;;;;;2.50;2.50;;;;;;;;2;261079845;261079845;-67
2023/08/04 16:08:38;;;;;;;;;0.50;0.50;;;;;;;;2;243074034;243074034;-68
2023/08/04 16:16:53;;;;;;;;;2.00;2.00;;;;;;;;2;261077210;261077210;-69
2023/08/04 16:25:35;;;;;;;;;4.00;4.00;;;;;;;;2;243074854;243074854;-69
2023/08/04 16:33:54;;;;;;;;;5.50;5.50;;;;;;;;2;261079934;261079934;-69
2023/08/04 16:42:36;;;;;;;;;0.00;0.00;;;;;;;;2;243075424;243075424;-71
2023/08/04 16:50:52;;;;;;;;;0.00;0.00;;;;;;;;2;261078865;261078865;-71
2023/08/04 16:59:34;;;;;;;;;3.50;3.50;;;;;;;;2;243074802;243074802;-70
2023/08/04 17:07:50;;;;;;;;;3.50;3.50;;;;;;;;2;261077396;261077396;-70
2023/08/04 17:16:33;;;;;;;;;0.00;0.00;;;;;;;;2;243073911;243073911;-70
2023/08/04 17:24:48;;;;;;;;;1.50;1.50;;;;;;;;2;261078491;261078491;-70
2023/08/04 17:33:34;;;;;;;;;1.50;1.50;;;;;;;;2;243072775;243072775;-70
2023/08/04 17:41:49;;;;;;;;;1.00;1.00;;;;;;;;2;261079598;261079598;-69
2023/08/04 17:50:32;;;;;;;;;0.50;0.50;;;;;;;;2;243074617;243074617;-69
2023/08/04 17:58:47;;;;;;;;;1.00;1.00;;;;;;;;2;261076319;261076319;-69
2023/08/04 18:07:16;;;;;;;;;2.00;2.00;;;;;;;;2;243072061;243072061;-69
2023/08/04 18:17:33;;;;;;;;;0.50;0.50;;;;;;;;3;139854035;234085153;-69
2023/08/04 18:26:33;;;;;;;;;;;;;;;;;;2;279081592;279081592;-70
2023/08/04 18:34:31;;;;;;;;;2.00;2.00;;;;;;;;2;234068039;234068039;-68
2023/08/04 18:43:31;;;;;;;;;5.00;5.00;;;;;;;;2;279082056;279082056;-70
2023/08/04 18:51:28;;;;;;;;;2.00;2.00;;;;;;;;2;234071315;234071315;-70
2023/08/04 19:00:29;;;;;;;;;4.00;4.00;;;;;;;;2;279084046;279084046;-70
2023/08/04 19:08:26;;;;;;;;;3.50;3.50;;;;;;;;2;234071498;234071498;-69
2023/08/04 19:17:27;;;;;;;;;5.00;5.00;;;;;;;;2;279083470;279083470;-70
2023/08/04 19:25:25;;;;;;;;;7.50;7.50;;;;;;;;2;234068599;234068599;-70
2023/08/04 19:34:25;;;;;;;;;3.50;3.50;;;;;;;;2;279085099;279085099;-70
2023/08/04 19:42:23;;;;;;;;;3.00;3.00;;;;;;;;2;234072153;234072153;-70
2023/08/04 19:51:23;;;;;;;;;15.00;3.00;;;;;;;;2;279083243;279083243;-69
2023/08/04 19:59:20;;;;;;;;;11.00;3.50;;;;;;;;2;234068961;234068961;-70
2023/08/04 20:08:21;;;;;;;;;4.00;4.00;;;;;;;;2;279082897;279082897;-70
2023/08/04 20:16:21;;;;;;;;;6.00;6.00;;;;;;;;2;233844332;233844332;-70
2023/08/04 20:25:15;;;;;;;;;4.00;4.00;;;;;;;;2;278610707;278610707;-69
2023/08/04 20:32:47;;;;;;;;;6.00;6.00;;;;;;;;2;229281200;229281200;-69
2023/08/04 20:40:36;;;;;;;;;2.50;2.50;;;;;;;;2;236918057;236918057;-71
2023/08/04 20:47:48;;;;;;;;;7.50;7.50;;;;;;;;2;204885227;204885227;-71
2023/08/04 20:55:05;;;;;;;;;1.00;1.00;;;;;;;;2;264043080;264043080;-71
2023/08/04 21:03:06;;;;;;;;;7.00;7.00;;;;;;;;165085;28;218632222;-70
2023/08/04 21:10:41;;;;;;;;;6.00;6.00;;;;;;;;2;235178165;235178165;-70
2023/08/04 21:18:52;;;;;;;;;1.00;1.00;;;;;;;;2;229870171;229870171;-70
2023/08/04 21:22:57;;;;;;;;;5.50;5.50;;;;;;;;2;181773795;181773795;-70
2023/08/04 21:29:03;;;;;;;;;5.00;5.00;;;;;;;;2;230049939;230049939;-70
2023/08/04 21:33:04;;;;;;;;;4.50;4.50;;;;;;;;697728;27;138043048;-69